sensor_id;sensor_type;location;lat;lon;timestamp;P1;durP1;ratioP1;P2;durP2;ratioP2
29814;SDS011;16708;50.426;7.664;2022-11-20T00:10:37;31.10;;;12.70;;
29814;SDS011;16708;50.426;7.664;2022-11-20T00:25:11;31.40;;;13.30;;
29814;SDS011;16708;50.426;7.664;2022-11-20T00:39:49;33.20;;;13.30;;
29814;SDS011;16708;50.426;7.664;2022-11-20T00:54:28;30.00;;;12.40;;
29814;SDS011;16708;50.426;7.664;2022-11-20T01:09:06;37.30;;;14.60;;
29814;SDS011;16708;50.426;7.664;2022-11-20T01:23:42;35.30;;;14.30;;
29814;SDS011;16708;50.426;7.664;2022-11-20T01:38:21;36.50;;;15.20;;
29814;SDS011;16708;50.426;7.664;2022-11-20T01:52:51;30.80;;;14.00;;
29814;SDS011;16708;50.426;7.664;2022-11-20T02:07:29;33.20;;;14.20;;
29814;SDS011;16708;50.426;7.664;2022-11-20T02:22:08;36.90;;;14.40;;
29814;SDS011;16708;50.426;7.664;2022-11-20T02:36:48;33.50;;;14.60;;
29814;SDS011;16708;50.426;7.664;2022-11-20T02:51:27;39.20;;;15.30;;
29814;SDS011;16708;50.426;7.664;2022-11-20T03:06:04;36.50;;;15.90;;
29814;SDS011;16708;50.426;7.664;2022-11-20T03:20:43;39.10;;;15.00;;
29814;SDS011;16708;50.426;7.664;2022-11-20T03:35:21;38.70;;;15.40;;
29814;SDS011;16708;50.426;7.664;2022-11-20T03:49:59;40.40;;;14.60;;
29814;SDS011;16708;50.426;7.664;2022-11-20T04:04:38;44.20;;;16.10;;
29814;SDS011;16708;50.426;7.664;2022-11-20T04:19:16;51.40;;;17.50;;
29814;SDS011;16708;50.426;7.664;2022-11-20T04:33:55;49.80;;;17.30;;
29814;SDS011;16708;50.426;7.664;2022-11-20T04:48:32;50.90;;;16.70;;
29814;SDS011;16708;50.426;7.664;2022-11-20T05:03:12;57.10;;;17.20;;
29814;SDS011;16708;50.426;7.664;2022-11-20T05:17:48;57.20;;;17.80;;
29814;SDS011;16708;50.426;7.664;2022-11-20T05:32:20;54.10;;;17.60;;
29814;SDS011;16708;50.426;7.664;2022-11-20T05:46:58;50.60;;;15.80;;
29814;SDS011;16708;50.426;7.664;2022-11-20T06:01:35;54.40;;;16.60;;
29814;SDS011;16708;50.426;7.664;2022-11-20T06:16:14;54.50;;;16.20;;
29814;SDS011;16708;50.426;7.664;2022-11-20T06:30:50;72.70;;;19.50;;
29814;SDS011;16708;50.426;7.664;2022-11-20T06:45:28;87.50;;;21.00;;
29814;SDS011;16708;50.426;7.664;2022-11-20T07:00:05;90.20;;;21.90;;
29814;SDS011;16708;50.426;7.664;2022-11-20T07:14:43;78.00;;;21.50;;
29814;SDS011;16708;50.426;7.664;2022-11-20T07:29:22;70.60;;;19.00;;
29814;SDS011;16708;50.426;7.664;2022-11-20T07:44:00;77.80;;;20.00;;
29814;SDS011;16708;50.426;7.664;2022-11-20T07:58:40;85.90;;;20.40;;
29814;SDS011;16708;50.426;7.664;2022-11-20T08:13:18;74.70;;;17.90;;
29814;SDS011;16708;50.426;7.664;2022-11-20T08:27:54;60.70;;;16.30;;
29814;SDS011;16708;50.426;7.664;2022-11-20T08:42:31;96.00;;;18.70;;
29814;SDS011;16708;50.426;7.664;2022-11-20T08:57:01;89.60;;;19.20;;
29814;SDS011;16708;50.426;7.664;2022-11-20T09:11:39;127.10;;;21.10;;
29814;SDS011;16708;50.426;7.664;2022-11-20T09:26:16;93.80;;;20.10;;
29814;SDS011;16708;50.426;7.664;2022-11-20T09:55:29;42.00;;;15.40;;
29814;SDS011;16708;50.426;7.664;2022-11-20T10:24:43;33.80;;;14.00;;
29814;SDS011;16708;50.426;7.664;2022-11-20T10:39:24;28.80;;;12.60;;
29814;SDS011;16708;50.426;7.664;2022-11-20T11:08:45;24.80;;;10.70;;
29814;SDS011;16708;50.426;7.664;2022-11-20T11:23:25;20.80;;;9.60;;
29814;SDS011;16708;50.426;7.664;2022-11-20T11:38:02;20.30;;;9.40;;
29814;SDS011;16708;50.426;7.664;2022-11-20T11:52:39;19.30;;;9.20;;
29814;SDS011;16708;50.426;7.664;2022-11-20T12:07:16;16.30;;;7.90;;
29814;SDS011;16708;50.426;7.664;2022-11-20T12:21:53;15.50;;;7.80;;
29814;SDS011;16708;50.426;7.664;2022-11-20T12:36:32;22.30;;;10.10;;
29814;SDS011;16708;50.426;7.664;2022-11-20T12:51:12;16.50;;;8.10;;
29814;SDS011;16708;50.426;7.664;2022-11-20T13:05:51;15.40;;;7.90;;
29814;SDS011;16708;50.426;7.664;2022-11-20T13:20:32;14.10;;;7.60;;
29814;SDS011;16708;50.426;7.664;2022-11-20T13:49:48;13.70;;;7.50;;
29814;SDS011;16708;50.426;7.664;2022-11-20T14:04:25;15.20;;;7.90;;
29814;SDS011;16708;50.426;7.664;2022-11-20T14:19:01;15.00;;;7.80;;
29814;SDS011;16708;50.426;7.664;2022-11-20T14:33:42;23.30;;;9.30;;
29814;SDS011;16708;50.426;7.664;2022-11-20T15:02:54;13.20;;;5.80;;
29814;SDS011;16708;50.426;7.664;2022-11-20T15:17:31;10.40;;;4.90;;
29814;SDS011;16708;50.426;7.664;2022-11-20T15:32:07;8.10;;;3.70;;
29814;SDS011;16708;50.426;7.664;2022-11-20T15:46:43;6.70;;;2.80;;
29814;SDS011;16708;50.426;7.664;2022-11-20T16:01:18;16.10;;;5.90;;
29814;SDS011;16708;50.426;7.664;2022-11-20T16:15:56;25.00;;;7.10;;
29814;SDS011;16708;50.426;7.664;2022-11-20T16:30:33;28.20;;;13.40;;
29814;SDS011;16708;50.426;7.664;2022-11-20T16:45:11;14.50;;;7.60;;
29814;SDS011;16708;50.426;7.664;2022-11-20T16:59:49;17.90;;;5.80;;
29814;SDS011;16708;50.426;7.664;2022-11-20T17:14:28;27.10;;;6.70;;
29814;SDS011;16708;50.426;7.664;2022-11-20T17:29:06;7.60;;;2.90;;
29814;SDS011;16708;50.426;7.664;2022-11-20T17:43:44;9.30;;;3.10;;
29814;SDS011;16708;50.426;7.664;2022-11-20T17:58:23;10.70;;;3.80;;
29814;SDS011;16708;50.426;7.664;2022-11-20T18:12:57;4.00;;;2.00;;
29814;SDS011;16708;50.426;7.664;2022-11-20T18:27:34;6.50;;;2.10;;
29814;SDS011;16708;50.426;7.664;2022-11-20T18:42:12;4.60;;;2.00;;
29814;SDS011;16708;50.426;7.664;2022-11-20T18:56:48;4.50;;;2.00;;
29814;SDS011;16708;50.426;7.664;2022-11-20T19:11:28;3.20;;;1.50;;
29814;SDS011;16708;50.426;7.664;2022-11-20T19:26:05;8.80;;;5.40;;
29814;SDS011;16708;50.426;7.664;2022-11-20T19:40:44;3.50;;;1.60;;
29814;SDS011;16708;50.426;7.664;2022-11-20T19:55:23;2.70;;;1.70;;
29814;SDS011;16708;50.426;7.664;2022-11-20T20:09:57;5.20;;;1.70;;
29814;SDS011;16708;50.426;7.664;2022-11-20T20:24:34;9.70;;;2.90;;
29814;SDS011;16708;50.426;7.664;2022-11-20T20:39:12;6.40;;;2.30;;
29814;SDS011;16708;50.426;7.664;2022-11-20T20:53:51;7.40;;;2.40;;
29814;SDS011;16708;50.426;7.664;2022-11-20T21:08:28;8.10;;;3.10;;
29814;SDS011;16708;50.426;7.664;2022-11-20T21:23:07;6.80;;;1.80;;
29814;SDS011;16708;50.426;7.664;2022-11-20T21:37:46;5.60;;;1.70;;
29814;SDS011;16708;50.426;7.664;2022-11-20T21:52:23;6.70;;;1.50;;
29814;SDS011;16708;50.426;7.664;2022-11-20T22:07:02;8.60;;;1.50;;
29814;SDS011;16708;50.426;7.664;2022-11-20T22:21:41;9.60;;;1.50;;
29814;SDS011;16708;50.426;7.664;2022-11-20T22:36:20;3.80;;;1.20;;
29814;SDS011;16708;50.426;7.664;2022-11-20T22:50:59;6.30;;;1.20;;
29814;SDS011;16708;50.426;7.664;2022-11-20T23:05:37;5.70;;;1.30;;
29814;SDS011;16708;50.426;7.664;2022-11-20T23:20:16;5.30;;;0.90;;
29814;SDS011;16708;50.426;7.664;2022-11-20T23:34:55;3.70;;;0.90;;
29814;SDS011;16708;50.426;7.664;2022-11-20T23:49:34;6.90;;;1.50;;
